Time;durP1;ratioP1;P1;durP2;ratioP2;P2;SDS_P1;SDS_P2;PMS_P1;PMS_P2;Temp;Humidity;BMP_temperature;BMP_pressure;BME280_temperature;BME280_humidity;BME280_pressure;Samples;Min_cycle;Max_cycle;Signal;HPM_P1;HPM_P2
2021/09/02 00:00:50;;;;;;;10.70;7.03;;;;;;;;;;5081562;28;20032;-71
2021/09/02 00:03:16;;;;;;;10.70;6.88;;;;;;;;;;5080714;28;20047;-71
2021/09/02 00:05:42;;;;;;;11.88;7.43;;;;;;;;;;5082326;28;20467;-69
2021/09/02 00:08:08;;;;;;;13.10;7.68;;;;;;;;;;5080595;28;20029;-69
2021/09/02 00:10:35;;;;;;;12.27;7.18;;;;;;;;;;5082585;28;20046;-69
2021/09/02 00:13:01;;;;;;;10.25;6.90;;;;;;;;;;5082206;28;20041;-71
2021/09/02 00:15:27;;;;;;;11.05;7.45;;;;;;;;;;5082254;28;20021;-70
2021/09/02 00:17:53;;;;;;;12.07;8.43;;;;;;;;;;5081175;28;20028;-70
2021/09/02 00:20:19;;;;;;;11.73;7.22;;;;;;;;;;5081476;28;20017;-69
2021/09/02 00:22:46;;;;;;;11.38;7.50;;;;;;;;;;5082007;28;20042;-70
2021/09/02 00:25:12;;;;;;;13.77;7.00;;;;;;;;;;5081537;28;20024;-67
2021/09/02 00:27:38;;;;;;;9.60;6.82;;;;;;;;;;5081700;28;20031;-71
2021/09/02 00:30:05;;;;;;;11.90;7.45;;;;;;;;;;5080712;28;20032;-71
2021/09/02 00:32:31;;;;;;;11.68;7.22;;;;;;;;;;5081699;28;20029;-73
2021/09/02 00:34:57;;;;;;;10.77;7.53;;;;;;;;;;5081064;28;20495;-70
2021/09/02 00:37:23;;;;;;;11.77;7.90;;;;;;;;;;5081735;28;20031;-70
2021/09/02 00:39:49;;;;;;;11.43;7.82;;;;;;;;;;5082439;28;20070;-71
2021/09/02 00:42:15;;;;;;;11.73;7.55;;;;;;;;;;5080346;28;20037;-73
2021/09/02 00:44:43;;;;;;;11.07;6.57;;;;;;;;;;5082031;28;20032;-68
2021/09/02 00:47:10;;;;;;;9.77;6.85;;;;;;;;;;5082548;28;20028;-66
2021/09/02 00:49:39;;;;;;;12.18;7.25;;;;;;;;;;5084604;28;20383;-69
2021/09/02 00:52:09;;;;;;;12.63;7.25;;;;;;;;;;5084037;28;20032;-67
2021/09/02 00:54:35;;;;;;;10.52;7.38;;;;;;;;;;5081815;28;20077;-71
2021/09/02 00:57:01;;;;;;;12.25;8.27;;;;;;;;;;5080427;28;20080;-71
2021/09/02 00:59:27;;;;;;;11.48;6.97;;;;;;;;;;5082561;28;20024;-70
2021/09/02 01:01:54;;;;;;;11.13;6.53;;;;;;;;;;5082304;28;20040;-67
2021/09/02 01:04:21;;;;;;;11.30;7.43;;;;;;;;;;5083221;28;20020;-67
2021/09/02 01:06:48;;;;;;;13.48;7.55;;;;;;;;;;5081860;28;20032;-71
2021/09/02 01:09:15;;;;;;;11.52;7.65;;;;;;;;;;5083032;28;20495;-66
2021/09/02 01:11:41;;;;;;;15.52;8.60;;;;;;;;;;5088391;28;20107;-71
2021/09/02 01:14:07;;;;;;;10.32;7.63;;;;;;;;;;5088135;28;20041;-69
2021/09/02 01:16:40;;;;;;;13.57;7.85;;;;;;;;;;5088192;28;20036;-68
2021/09/02 01:19:06;;;;;;;12.30;7.18;;;;;;;;;;5089416;28;20024;-71
2021/09/02 01:21:33;;;;;;;12.02;7.57;;;;;;;;;;5085015;28;20033;-70
2021/09/02 01:23:59;;;;;;;12.73;7.53;;;;;;;;;;5082615;28;20036;-71
2021/09/02 01:26:25;;;;;;;10.80;7.40;;;;;;;;;;5082062;28;20115;-70
2021/09/02 01:28:51;;;;;;;11.35;7.05;;;;;;;;;;5083330;28;20024;-71
2021/09/02 01:31:21;;;;;;;11.10;6.85;;;;;;;;;;5079975;28;20051;-68
2021/09/02 01:33:51;;;;;;;11.15;7.60;;;;;;;;;;5080424;28;20025;-70
2021/09/02 01:36:17;;;;;;;12.93;8.43;;;;;;;;;;5079752;28;20442;-70
2021/09/02 01:38:44;;;;;;;12.13;7.45;;;;;;;;;;5078000;28;20024;-71
2021/09/02 01:41:11;;;;;;;12.48;7.53;;;;;;;;;;5079669;28;20033;-68
2021/09/02 01:43:37;;;;;;;11.32;7.88;;;;;;;;;;5080127;28;20024;-71
2021/09/02 01:46:03;;;;;;;13.95;7.75;;;;;;;;;;5079913;28;20032;-70
2021/09/02 01:48:33;;;;;;;15.55;8.32;;;;;;;;;;5080471;28;20052;-69
2021/09/02 01:50:59;;;;;;;11.10;7.32;;;;;;;;;;5080384;28;20480;-69
2021/09/02 01:53:25;;;;;;;13.48;7.32;;;;;;;;;;5080277;28;20039;-70
2021/09/02 01:55:52;;;;;;;10.93;6.60;;;;;;;;;;5080268;28;20044;-71
2021/09/02 01:58:18;;;;;;;12.57;7.40;;;;;;;;;;5081830;28;20021;-70
2021/09/02 02:00:44;;;;;;;9.50;6.68;;;;;;;;;;5080158;28;20029;-67
2021/09/02 02:03:10;;;;;;;12.23;7.18;;;;;;;;;;5079668;28;20121;-68
2021/09/02 02:05:36;;;;;;;15.25;7.05;;;;;;;;;;5080364;28;20074;-69
2021/09/02 02:08:03;;;;;;;12.02;8.07;;;;;;;;;;5079333;28;20064;-76
2021/09/02 02:10:30;;;;;;;10.25;7.43;;;;;;;;;;5080287;28;20025;-71
2021/09/02 02:12:57;;;;;;;15.57;8.02;;;;;;;;;;5079809;28;20055;-71
2021/09/02 02:15:24;;;;;;;9.20;7.00;;;;;;;;;;5079128;28;20036;-71
2021/09/02 02:17:50;;;;;;;11.38;6.95;;;;;;;;;;5080045;28;20390;-72
2021/09/02 02:20:16;;;;;;;9.07;6.75;;;;;;;;;;5079442;28;20020;-68
2021/09/02 02:22:43;;;;;;;13.07;7.60;;;;;;;;;;5078075;28;20035;-70
2021/09/02 02:25:10;;;;;;;12.50;7.45;;;;;;;;;;5080219;28;20033;-67
2021/09/02 02:27:37;;;;;;;12.32;8.77;;;;;;;;;;5079508;28;20125;-70
2021/09/02 02:30:04;;;;;;;10.25;7.63;;;;;;;;;;5079565;28;20033;-73
2021/09/02 02:32:33;;;;;;;13.25;7.43;;;;;;;;;;5078989;28;20033;-73
2021/09/02 02:34:59;;;;;;;10.77;7.43;;;;;;;;;;5079131;28;20078;-73
2021/09/02 02:37:25;;;;;;;10.82;6.95;;;;;;;;;;5079156;28;20023;-71
2021/09/02 02:39:51;;;;;;;12.93;7.10;;;;;;;;;;5091097;28;20107;-72
2021/09/02 02:42:17;;;;;;;12.60;7.70;;;;;;;;;;5081500;28;20107;-69
2021/09/02 02:44:44;;;;;;;10.10;7.45;;;;;;;;;;5080364;28;20032;-71
2021/09/02 02:47:10;;;;;;;14.18;8.00;;;;;;;;;;5079765;28;20025;-67
2021/09/02 02:49:36;;;;;;;13.60;7.78;;;;;;;;;;5077007;28;20115;-73
2021/09/02 02:52:03;;;;;;;14.15;7.85;;;;;;;;;;5079169;28;20028;-68
2021/09/02 02:54:29;;;;;;;12.32;7.90;;;;;;;;;;5079643;28;20040;-72
2021/09/02 02:56:55;;;;;;;13.38;7.82;;;;;;;;;;5079983;28;20024;-69
2021/09/02 02:59:21;;;;;;;12.70;7.93;;;;;;;;;;5080660;28;20067;-67
2021/09/02 03:01:47;;;;;;;12.32;7.70;;;;;;;;;;5079158;28;20477;-69
2021/09/02 03:04:13;;;;;;;12.32;7.03;;;;;;;;;;5079669;28;20040;-73
2021/09/02 03:06:40;;;;;;;11.35;7.85;;;;;;;;;;5080347;28;20021;-68
2021/09/02 03:09:06;;;;;;;15.18;8.32;;;;;;;;;;5078821;28;20024;-72
2021/09/02 03:11:32;;;;;;;11.73;7.50;;;;;;;;;;5080352;28;20064;-69
2021/09/02 03:13:58;;;;;;;13.02;8.57;;;;;;;;;;5079052;28;20040;-71
2021/09/02 03:16:24;;;;;;;13.13;7.70;;;;;;;;;;5079841;28;20072;-71
2021/09/02 03:18:50;;;;;;;12.45;7.70;;;;;;;;;;5080244;28;20515;-74
2021/09/02 03:21:16;;;;;;;12.65;8.50;;;;;;;;;;5079442;28;20086;-70
2021/09/02 03:23:43;;;;;;;11.82;7.63;;;;;;;;;;5078864;28;20032;-73
2021/09/02 03:26:09;;;;;;;15.68;7.80;;;;;;;;;;5078682;28;20070;-68
2021/09/02 03:28:35;;;;;;;15.50;7.93;;;;;;;;;;5081509;28;20028;-72
2021/09/02 03:31:01;;;;;;;22.83;7.65;;;;;;;;;;5085273;28;20037;-73
2021/09/02 03:33:27;;;;;;;12.27;7.30;;;;;;;;;;5083953;28;20028;-71
2021/09/02 03:35:53;;;;;;;11.52;7.63;;;;;;;;;;5083917;28;20057;-72
2021/09/02 03:38:19;;;;;;;10.73;7.55;;;;;;;;;;5082064;28;20017;-70
2021/09/02 03:40:45;;;;;;;12.27;8.07;;;;;;;;;;5083076;28;20028;-68
2021/09/02 03:43:11;;;;;;;12.75;8.20;;;;;;;;;;5082851;28;20021;-71
2021/09/02 03:45:38;;;;;;;13.25;7.40;;;;;;;;;;5085912;28;20032;-67
2021/09/02 03:48:04;;;;;;;12.75;7.70;;;;;;;;;;5082898;28;20032;-73
2021/09/02 03:50:30;;;;;;;13.25;7.93;;;;;;;;;;5083497;28;20058;-67
2021/09/02 03:52:56;;;;;;;12.60;8.65;;;;;;;;;;5083666;28;20130;-69
2021/09/02 03:55:22;;;;;;;15.15;8.35;;;;;;;;;;5083245;28;20467;-71
2021/09/02 03:57:48;;;;;;;13.15;7.80;;;;;;;;;;5082660;28;20071;-71
2021/09/02 04:00:14;;;;;;;10.88;6.97;;;;;;;;;;5083178;28;20107;-66
2021/09/02 04:02:41;;;;;;;12.35;8.07;;;;;;;;;;5081614;28;20028;-70
2021/09/02 04:05:08;;;;;;;13.85;7.70;;;;;;;;;;5083515;28;20024;-68
2021/09/02 04:07:34;;;;;;;12.50;7.43;;;;;;;;;;5083298;28;20457;-70
2021/09/02 04:10:00;;;;;;;14.73;7.72;;;;;;;;;;5082786;28;20037;-70
2021/09/02 04:12:26;;;;;;;14.75;8.65;;;;;;;;;;5081932;28;20025;-70
2021/09/02 04:14:52;;;;;;;14.27;8.38;;;;;;;;;;5085622;28;20029;-66
2021/09/02 04:17:18;;;;;;;14.98;8.45;;;;;;;;;;5086475;28;20055;-66
2021/09/02 04:19:45;;;;;;;16.15;7.93;;;;;;;;;;5086541;28;20032;-72
2021/09/02 04:22:11;;;;;;;11.90;7.80;;;;;;;;;;5085748;28;20056;-72
2021/09/02 04:24:37;;;;;;;14.18;8.73;;;;;;;;;;5085018;28;20025;-67
2021/09/02 04:27:03;;;;;;;12.77;7.88;;;;;;;;;;5082683;28;20024;-72
2021/09/02 04:29:29;;;;;;;14.20;7.93;;;;;;;;;;5082183;28;20107;-69
2021/09/02 04:31:55;;;;;;;16.85;9.70;;;;;;;;;;5082491;28;20028;-68
2021/09/02 04:34:21;;;;;;;13.95;9.18;;;;;;;;;;5083902;28;20025;-72
2021/09/02 04:36:47;;;;;;;15.00;9.30;;;;;;;;;;5082553;28;20092;-72
2021/09/02 04:39:13;;;;;;;16.40;10.32;;;;;;;;;;5080062;28;20040;-73
2021/09/02 04:41:39;;;;;;;15.90;9.43;;;;;;;;;;5082160;28;20031;-70
2021/09/02 04:44:06;;;;;;;17.80;10.48;;;;;;;;;;5081617;28;20024;-72
2021/09/02 04:46:32;;;;;;;17.45;9.32;;;;;;;;;;5080853;28;20093;-71
2021/09/02 04:48:58;;;;;;;16.75;9.35;;;;;;;;;;5081065;28;20024;-70
2021/09/02 04:51:24;;;;;;;18.63;10.00;;;;;;;;;;5080981;28;20032;-68
2021/09/02 04:53:50;;;;;;;16.20;10.02;;;;;;;;;;5081880;28;20099;-69
2021/09/02 04:56:16;;;;;;;15.13;9.82;;;;;;;;;;5081159;28;20047;-71
2021/09/02 04:58:42;;;;;;;15.88;9.68;;;;;;;;;;5081724;28;20032;-71
2021/09/02 05:01:08;;;;;;;17.27;9.75;;;;;;;;;;5081059;28;20040;-71
2021/09/02 05:03:34;;;;;;;18.08;9.70;;;;;;;;;;5081881;28;20531;-68
2021/09/02 05:06:00;;;;;;;18.90;9.88;;;;;;;;;;5081896;28;20021;-70
2021/09/02 05:08:27;;;;;;;14.30;10.07;;;;;;;;;;5081594;28;20028;-73
2021/09/02 05:10:55;;;;;;;15.85;9.57;;;;;;;;;;5081210;28;20111;-67
2021/09/02 05:13:21;;;;;;;16.88;8.98;;;;;;;;;;5080881;28;20052;-72
2021/09/02 05:15:49;;;;;;;16.88;9.02;;;;;;;;;;5081408;28;20044;-71
2021/09/02 05:18:16;;;;;;;23.92;9.75;;;;;;;;;;5083096;28;20024;-71
2021/09/02 05:20:42;;;;;;;16.15;9.05;;;;;;;;;;5082185;28;20027;-68
2021/09/02 05:23:08;;;;;;;13.02;8.77;;;;;;;;;;5081639;28;20024;-70
2021/09/02 05:25:34;;;;;;;13.25;9.18;;;;;;;;;;5080905;28;20028;-70
2021/09/02 05:28:00;;;;;;;16.42;9.13;;;;;;;;;;5080755;28;20021;-71
2021/09/02 05:30:26;;;;;;;15.63;9.00;;;;;;;;;;5081497;28;20373;-70
2021/09/02 05:32:52;;;;;;;14.90;9.15;;;;;;;;;;5080845;28;20027;-71
2021/09/02 05:35:21;;;;;;;17.42;10.45;;;;;;;;;;5081026;28;20082;-71
2021/09/02 05:37:47;;;;;;;19.13;9.27;;;;;;;;;;5080177;28;20557;-70
2021/09/02 05:40:13;;;;;;;13.02;9.13;;;;;;;;;;5080475;28;20103;-71
2021/09/02 05:42:39;;;;;;;16.13;8.90;;;;;;;;;;5078302;28;20506;-71
2021/09/02 05:45:06;;;;;;;14.10;8.52;;;;;;;;;;5081495;28;20395;-68
2021/09/02 05:47:32;;;;;;;19.02;9.13;;;;;;;;;;5080627;28;20056;-69
2021/09/02 05:49:58;;;;;;;21.10;9.63;;;;;;;;;;5078235;28;20048;-70
2021/09/02 05:52:24;;;;;;;13.18;8.32;;;;;;;;;;5094229;28;20063;-68
2021/09/02 05:54:54;;;;;;;19.35;9.20;;;;;;;;;;5096372;28;20074;-70
2021/09/02 05:57:21;;;;;;;16.35;8.85;;;;;;;;;;5093506;28;20020;-71
2021/09/02 05:59:47;;;;;;;15.18;8.95;;;;;;;;;;5085826;28;20024;-73
2021/09/02 06:02:13;;;;;;;14.70;9.18;;;;;;;;;;5079696;28;20526;-70
2021/09/02 06:04:39;;;;;;;16.52;9.20;;;;;;;;;;5083573;28;20031;-70
2021/09/02 06:07:05;;;;;;;12.65;8.10;;;;;;;;;;5080146;28;20060;-70
2021/09/02 06:09:31;;;;;;;15.25;8.98;;;;;;;;;;5079558;28;20040;-73
2021/09/02 06:11:57;;;;;;;16.95;9.25;;;;;;;;;;5078564;28;20056;-67
2021/09/02 06:14:23;;;;;;;20.50;9.73;;;;;;;;;;5080163;28;20072;-68
2021/09/02 06:16:50;;;;;;;15.10;9.68;;;;;;;;;;5080495;28;20024;-69
2021/09/02 06:19:16;;;;;;;14.70;8.48;;;;;;;;;;5081463;28;20021;-69
2021/09/02 06:21:42;;;;;;;16.02;8.52;;;;;;;;;;5081634;28;20024;-69
2021/09/02 06:24:08;;;;;;;16.25;9.30;;;;;;;;;;5083051;28;20554;-71
2021/09/02 06:26:34;;;;;;;15.98;9.00;;;;;;;;;;5083235;28;20033;-67
2021/09/02 06:29:00;;;;;;;18.20;8.70;;;;;;;;;;5086032;28;20021;-72
2021/09/02 06:31:26;;;;;;;14.45;9.05;;;;;;;;;;5085688;28;20032;-66
2021/09/02 06:33:52;;;;;;;15.05;8.30;;;;;;;;;;5086129;28;20020;-68
2021/09/02 06:36:20;;;;;;;16.00;9.35;;;;;;;;;;5085645;28;20460;-69
2021/09/02 06:38:46;;;;;;;13.55;7.88;;;;;;;;;;5084220;28;20021;-68
2021/09/02 06:41:12;;;;;;;15.13;8.88;;;;;;;;;;5083070;28;20033;-68
2021/09/02 06:43:48;;;;;;;15.52;8.68;;;;;;;;;;5078993;28;20055;-73
2021/09/02 06:46:14;;;;;;;13.13;7.43;;;;;;;;;;5079679;28;20035;-70
2021/09/02 06:48:40;;;;;;;13.77;8.05;;;;;;;;;;5079628;28;20056;-69
2021/09/02 06:51:06;;;;;;;13.55;8.15;;;;;;;;;;5080721;28;20027;-72
2021/09/02 06:53:32;;;;;;;13.63;7.88;;;;;;;;;;5080474;28;20344;-70
2021/09/02 06:55:58;;;;;;;13.45;7.18;;;;;;;;;;5079256;28;20085;-73
2021/09/02 06:58:24;;;;;;;12.23;7.63;;;;;;;;;;5076227;28;20089;-70
2021/09/02 07:00:50;;;;;;;22.45;9.30;;;;;;;;;;5078708;28;20518;-67
2021/09/02 07:03:20;;;;;;;18.70;8.13;;;;;;;;;;5085292;28;20093;-71
2021/09/02 07:05:46;;;;;;;12.32;7.20;;;;;;;;;;5071705;28;20127;-73
2021/09/02 07:08:12;;;;;;;12.82;7.25;;;;;;;;;;5071686;28;20025;-74
2021/09/02 07:10:38;;;;;;;11.23;7.13;;;;;;;;;;5078870;28;20044;-74
2021/09/02 07:13:05;;;;;;;10.68;6.30;;;;;;;;;;5077767;28;20176;-67
2021/09/02 07:15:31;;;;;;;10.10;6.88;;;;;;;;;;5075490;28;20078;-72
2021/09/02 07:17:58;;;;;;;9.98;6.47;;;;;;;;;;5076879;28;20365;-73
2021/09/02 07:20:24;;;;;;;11.25;6.40;;;;;;;;;;5084218;28;20020;-67
2021/09/02 07:22:50;;;;;;;6.35;5.10;;;;;;;;;;5084178;28;20040;-75
2021/09/02 07:25:17;;;;;;;7.65;5.88;;;;;;;;;;5082764;28;20083;-75
2021/09/02 07:27:43;;;;;;;9.00;5.20;;;;;;;;;;5082420;28;20043;-70
2021/09/02 07:30:09;;;;;;;11.68;5.80;;;;;;;;;;5081475;28;20028;-74
2021/09/02 07:32:36;;;;;;;11.80;6.20;;;;;;;;;;5086524;28;20032;-71
2021/09/02 07:35:02;;;;;;;10.45;6.50;;;;;;;;;;5085350;28;20032;-67
2021/09/02 07:37:28;;;;;;;11.48;6.65;;;;;;;;;;5085110;28;20399;-73
2021/09/02 07:39:54;;;;;;;7.57;5.93;;;;;;;;;;5089455;28;20036;-68
2021/09/02 07:42:20;;;;;;;11.00;6.07;;;;;;;;;;5089077;28;20021;-66
2021/09/02 07:44:47;;;;;;;10.07;6.00;;;;;;;;;;5088533;28;20055;-67
2021/09/02 07:47:14;;;;;;;9.65;6.10;;;;;;;;;;5089281;28;20029;-69
2021/09/02 07:49:41;;;;;;;8.77;5.53;;;;;;;;;;5083157;28;20027;-71
2021/09/02 07:52:09;;;;;;;10.38;6.15;;;;;;;;;;5084519;28;20047;-74
2021/09/02 07:54:35;;;;;;;7.72;5.78;;;;;;;;;;5082396;28;20075;-69
2021/09/02 07:57:02;;;;;;;6.78;5.75;;;;;;;;;;5082755;28;20021;-74
2021/09/02 07:59:28;;;;;;;9.60;5.30;;;;;;;;;;5081802;28;20430;-71
2021/09/02 08:01:54;;;;;;;10.75;5.40;;;;;;;;;;5081503;28;20075;-70
2021/09/02 08:04:20;;;;;;;6.60;5.50;;;;;;;;;;5074993;28;20024;-68
2021/09/02 08:06:47;;;;;;;10.32;5.70;;;;;;;;;;5080605;28;20085;-71
2021/09/02 08:09:13;;;;;;;8.60;5.63;;;;;;;;;;5079508;28;20455;-68
2021/09/02 08:11:39;;;;;;;9.90;6.15;;;;;;;;;;5080629;28;20039;-67
2021/09/02 08:14:05;;;;;;;9.27;6.50;;;;;;;;;;5081350;28;20048;-68
2021/09/02 08:16:31;;;;;;;7.60;5.32;;;;;;;;;;5078386;28;20020;-74
2021/09/02 08:18:58;;;;;;;9.25;6.38;;;;;;;;;;5081896;28;20082;-69
2021/09/02 08:21:24;;;;;;;10.02;6.05;;;;;;;;;;5077638;28;20588;-73
2021/09/02 08:23:51;;;;;;;10.45;6.18;;;;;;;;;;5081535;28;20095;-74
2021/09/02 08:26:17;;;;;;;10.73;6.38;;;;;;;;;;5080047;28;20031;-69
2021/09/02 08:28:43;;;;;;;9.73;6.18;;;;;;;;;;5078427;28;20065;-75
2021/09/02 08:31:09;;;;;;;7.78;5.28;;;;;;;;;;5079444;28;20127;-67
2021/09/02 08:33:35;;;;;;;11.60;5.88;;;;;;;;;;5080356;28;20032;-71
2021/09/02 08:36:01;;;;;;;9.32;5.95;;;;;;;;;;5081181;28;20035;-72
2021/09/02 08:38:28;;;;;;;9.40;5.88;;;;;;;;;;5086201;28;20058;-68
2021/09/02 08:40:54;;;;;;;9.57;6.05;;;;;;;;;;5079675;28;20040;-72
2021/09/02 08:43:20;;;;;;;11.40;5.57;;;;;;;;;;5082371;28;20104;-75
2021/09/02 08:45:47;;;;;;;8.82;7.00;;;;;;;;;;5078189;28;20035;-74
2021/09/02 08:48:13;;;;;;;8.93;6.65;;;;;;;;;;5076764;28;20040;-74
2021/09/02 08:50:40;;;;;;;11.13;5.85;;;;;;;;;;5077094;28;20028;-70
2021/09/02 08:53:07;;;;;;;8.85;5.93;;;;;;;;;;5081053;28;20076;-71
2021/09/02 08:55:35;;;;;;;12.93;6.57;;;;;;;;;;5078074;28;20270;-68
2021/09/02 08:58:01;;;;;;;11.73;5.68;;;;;;;;;;5082294;28;20028;-73
2021/09/02 09:00:27;;;;;;;10.30;6.10;;;;;;;;;;5079436;28;20037;-72
2021/09/02 09:03:01;;;;;;;10.82;5.68;;;;;;;;;;5076145;28;20046;-73
2021/09/02 09:05:29;;;;;;;8.68;6.07;;;;;;;;;;5060536;28;20020;-73
2021/09/02 09:07:55;;;;;;;10.38;6.22;;;;;;;;;;5097960;28;20028;-68
2021/09/02 09:10:25;;;;;;;10.75;6.65;;;;;;;;;;5102238;28;20024;-69
2021/09/02 09:12:53;;;;;;;10.13;5.55;;;;;;;;;;5098967;28;20046;-76
2021/09/02 09:15:23;;;;;;;12.73;7.70;;;;;;;;;;5077221;28;20036;-65
2021/09/02 09:17:51;;;;;;;9.05;6.07;;;;;;;;;;5080669;28;20025;-75
2021/09/02 09:20:18;;;;;;;8.45;5.60;;;;;;;;;;5075874;28;20029;-74
2021/09/02 09:22:48;;;;;;;9.32;5.70;;;;;;;;;;5073469;28;20049;-75
2021/09/02 09:25:15;;;;;;;10.30;6.05;;;;;;;;;;5076568;28;20098;-74
2021/09/02 09:27:48;;;;;;;8.80;6.20;;;;;;;;;;5072019;28;20436;-73
2021/09/02 09:30:14;;;;;;;9.32;6.50;;;;;;;;;;5073242;28;20995;-72
2021/09/02 09:32:48;;;;;;;9.52;6.15;;;;;;;;;;5074273;28;20112;-72
2021/09/02 09:35:24;;;;;;;8.48;5.90;;;;;;;;;;5071532;28;20484;-71
2021/09/02 09:37:51;;;;;;;9.75;6.05;;;;;;;;;;5076503;28;20463;-71
2021/09/02 09:40:19;;;;;;;9.55;6.38;;;;;;;;;;5077917;28;20029;-67
2021/09/02 09:43:04;;;;;;;10.38;6.03;;;;;;;;;;5079964;28;20111;-75
2021/09/02 09:45:44;;;;;;;8.30;6.13;;;;;;;;;;5056837;28;20086;-72
2021/09/02 09:48:20;;;;;;;13.40;6.68;;;;;;;;;;5078856;28;20703;-73
2021/09/02 09:50:47;;;;;;;10.88;6.15;;;;;;;;;;5072910;28;20490;-72
2021/09/02 09:53:28;;;;;;;8.82;6.45;;;;;;;;;;5078207;28;20028;-68
2021/09/02 09:55:54;;;;;;;9.25;6.75;;;;;;;;;;5080169;28;20031;-74
2021/09/02 09:58:22;;;;;;;8.63;6.82;;;;;;;;;;5080651;28;20099;-71
2021/09/02 10:00:49;;;;;;;9.45;6.45;;;;;;;;;;5081876;28;20390;-74
2021/09/02 10:03:16;;;;;;;11.75;6.72;;;;;;;;;;5074803;28;20036;-72
2021/09/02 10:05:42;;;;;;;16.85;7.75;;;;;;;;;;5075631;28;20032;-72
2021/09/02 10:08:08;;;;;;;15.82;7.00;;;;;;;;;;5072340;28;20037;-76
2021/09/02 10:10:34;;;;;;;10.15;6.57;;;;;;;;;;5072661;28;20383;-72
2021/09/02 10:13:01;;;;;;;8.20;7.22;;;;;;;;;;5073263;28;20426;-74
2021/09/02 10:15:30;;;;;;;13.90;7.70;;;;;;;;;;5076142;28;20103;-69
2021/09/02 10:18:05;;;;;;;10.30;6.50;;;;;;;;;;5084846;28;20020;-65
2021/09/02 10:20:38;;;;;;;10.55;7.45;;;;;;;;;;5083892;28;20035;-73
2021/09/02 10:23:05;;;;;;;13.40;7.80;;;;;;;;;;5075874;28;20037;-70
2021/09/02 10:25:34;;;;;;;11.32;6.57;;;;;;;;;;5082942;28;20020;-66
2021/09/02 10:28:06;;;;;;;11.55;7.30;;;;;;;;;;5079115;28;20032;-73
2021/09/02 10:30:33;;;;;;;10.55;7.18;;;;;;;;;;5080025;28;20021;-67
2021/09/02 10:33:00;;;;;;;14.35;7.78;;;;;;;;;;5080415;28;20047;-71
2021/09/02 10:35:26;;;;;;;12.77;7.47;;;;;;;;;;5076422;28;20040;-73
2021/09/02 10:37:55;;;;;;;15.05;7.65;;;;;;;;;;5074499;28;20034;-72
2021/09/02 10:40:26;;;;;;;15.88;8.05;;;;;;;;;;5076995;28;20070;-68
2021/09/02 10:42:56;;;;;;;14.38;7.80;;;;;;;;;;5081581;28;20494;-69
2021/09/02 10:45:28;;;;;;;12.23;7.80;;;;;;;;;;5083162;28;20104;-70
2021/09/02 10:47:54;;;;;;;15.57;7.32;;;;;;;;;;5064466;28;20021;-67
2021/09/02 10:50:22;;;;;;;12.68;7.18;;;;;;;;;;5075853;28;20195;-72
2021/09/02 10:52:49;;;;;;;18.77;7.60;;;;;;;;;;5082177;28;20024;-74
2021/09/02 10:55:28;;;;;;;13.02;7.60;;;;;;;;;;5081541;28;20021;-69
2021/09/02 10:57:54;;;;;;;13.05;7.15;;;;;;;;;;5079416;28;20028;-69
2021/09/02 11:00:35;;;;;;;11.38;7.75;;;;;;;;;;5073353;28;20108;-71
2021/09/02 11:03:14;;;;;;;12.43;7.63;;;;;;;;;;5070697;28;20418;-73
2021/09/02 11:05:42;;;;;;;13.55;7.90;;;;;;;;;;5071056;28;20479;-76
2021/09/02 11:08:09;;;;;;;20.35;8.70;;;;;;;;;;5069641;28;20501;-71
2021/09/02 11:10:35;;;;;;;13.32;7.50;;;;;;;;;;5073196;28;20033;-73
2021/09/02 11:13:03;;;;;;;15.65;7.93;;;;;;;;;;5071785;28;20052;-71
2021/09/02 11:15:29;;;;;;;14.30;9.18;;;;;;;;;;5065318;28;20029;-71
2021/09/02 11:18:00;;;;;;;12.80;8.05;;;;;;;;;;5070673;28;20120;-72
2021/09/02 11:20:28;;;;;;;12.15;7.80;;;;;;;;;;5071552;28;20028;-71
2021/09/02 11:23:08;;;;;;;14.68;8.10;;;;;;;;;;5074695;28;20037;-72
2021/09/02 11:26:00;;;;;;;12.30;7.22;;;;;;;;;;5075806;28;20033;-73
2021/09/02 11:28:26;;;;;;;15.95;8.43;;;;;;;;;;5074580;28;20045;-71
2021/09/02 11:30:53;;;;;;;12.00;7.43;;;;;;;;;;5072773;28;20447;-72
2021/09/02 11:33:20;;;;;;;12.00;7.80;;;;;;;;;;5073980;28;20099;-75
2021/09/02 11:35:56;;;;;;;13.30;7.90;;;;;;;;;;5074479;28;20025;-73
2021/09/02 11:38:22;;;;;;;10.32;7.00;;;;;;;;;;5073308;28;20021;-72
2021/09/02 11:40:48;;;;;;;16.90;9.00;;;;;;;;;;5073568;28;20031;-72
2021/09/02 11:43:16;;;;;;;12.60;7.60;;;;;;;;;;5072832;28;20112;-69
2021/09/02 11:45:49;;;;;;;14.77;8.00;;;;;;;;;;5075578;28;20452;-73
2021/09/02 11:48:15;;;;;;;11.98;7.72;;;;;;;;;;5074952;28;20037;-73
2021/09/02 11:50:41;;;;;;;12.10;7.80;;;;;;;;;;5080019;28;20506;-70
2021/09/02 11:53:07;;;;;;;13.48;8.52;;;;;;;;;;5076242;28;20089;-73
2021/09/02 11:55:34;;;;;;;12.48;7.72;;;;;;;;;;5077454;28;20028;-73
2021/09/02 11:58:01;;;;;;;13.25;8.05;;;;;;;;;;5075281;28;20383;-72
2021/09/02 12:00:28;;;;;;;9.98;7.05;;;;;;;;;;5084112;28;20020;-72
2021/09/02 12:02:58;;;;;;;12.60;8.35;;;;;;;;;;5078468;28;20102;-71
2021/09/02 12:05:35;;;;;;;12.25;8.02;;;;;;;;;;5081492;28;20032;-67
2021/09/02 12:08:01;;;;;;;12.43;7.10;;;;;;;;;;5075804;28;20032;-72
2021/09/02 12:10:27;;;;;;;11.95;7.68;;;;;;;;;;5073401;28;20029;-73
2021/09/02 12:12:53;;;;;;;11.30;7.45;;;;;;;;;;5075991;28;20148;-74
2021/09/02 12:15:27;;;;;;;12.18;7.75;;;;;;;;;;5081645;28;20097;-73
2021/09/02 12:18:07;;;;;;;10.43;7.32;;;;;;;;;;5076576;28;20079;-73
2021/09/02 12:20:34;;;;;;;11.85;6.85;;;;;;;;;;5075034;28;20055;-74
2021/09/02 12:23:16;;;;;;;12.13;6.43;;;;;;;;;;5073860;28;20430;-75
2021/09/02 12:25:55;;;;;;;10.40;7.35;;;;;;;;;;5075660;28;20025;-74
2021/09/02 12:28:30;;;;;;;11.63;7.43;;;;;;;;;;5075508;28;20368;-74
2021/09/02 12:30:56;;;;;;;9.70;6.80;;;;;;;;;;5075511;28;20085;-72
2021/09/02 12:33:22;;;;;;;10.70;7.97;;;;;;;;;;5075106;28;20502;-74
2021/09/02 12:35:48;;;;;;;9.77;6.65;;;;;;;;;;5076581;28;20084;-73
2021/09/02 12:38:34;;;;;;;9.10;6.40;;;;;;;;;;5075950;28;20105;-69
2021/09/02 12:41:18;;;;;;;9.75;6.18;;;;;;;;;;5076043;28;20411;-71
2021/09/02 12:44:05;;;;;;;11.93;7.55;;;;;;;;;;5074968;28;20444;-73
2021/09/02 12:46:47;;;;;;;10.43;7.18;;;;;;;;;;5077747;28;20055;-73
2021/09/02 12:49:13;;;;;;;16.30;7.40;;;;;;;;;;5084120;28;20052;-73
2021/09/02 12:51:39;;;;;;;10.55;6.57;;;;;;;;;;5085135;28;20033;-72
2021/09/02 12:54:05;;;;;;;12.57;6.95;;;;;;;;;;5085367;28;20391;-73
2021/09/02 12:56:36;;;;;;;12.23;7.68;;;;;;;;;;5082826;28;20025;-70
2021/09/02 12:59:02;;;;;;;12.05;6.82;;;;;;;;;;5084638;28;20017;-71
2021/09/02 13:01:29;;;;;;;15.32;7.78;;;;;;;;;;5084006;28;20428;-71
2021/09/02 13:03:58;;;;;;;10.50;7.00;;;;;;;;;;5078044;28;20051;-69
2021/09/02 13:06:24;;;;;;;10.77;7.60;;;;;;;;;;5077426;28;20056;-72
2021/09/02 13:08:50;;;;;;;11.73;8.05;;;;;;;;;;5078591;28;20533;-69
2021/09/02 13:11:17;;;;;;;12.05;7.00;;;;;;;;;;5078268;28;20028;-73
2021/09/02 13:13:43;;;;;;;9.52;7.00;;;;;;;;;;5079893;28;20068;-71
2021/09/02 13:16:09;;;;;;;11.73;6.60;;;;;;;;;;5077250;28;20032;-71
2021/09/02 13:18:35;;;;;;;11.50;6.80;;;;;;;;;;5077286;28;20024;-74
2021/09/02 13:21:04;;;;;;;11.52;6.75;;;;;;;;;;5081744;28;20082;-73
2021/09/02 13:23:30;;;;;;;12.57;6.20;;;;;;;;;;5077552;28;20032;-71
2021/09/02 13:25:56;;;;;;;8.05;5.57;;;;;;;;;;5071728;28;20043;-75
2021/09/02 13:28:22;;;;;;;11.40;6.40;;;;;;;;;;5072689;28;20052;-72
2021/09/02 13:30:48;;;;;;;9.52;5.63;;;;;;;;;;5073146;28;20025;-72
2021/09/02 13:33:14;;;;;;;8.07;5.00;;;;;;;;;;5074833;28;20028;-74
2021/09/02 13:35:41;;;;;;;9.85;5.25;;;;;;;;;;5072960;28;20086;-72
2021/09/02 13:38:07;;;;;;;7.13;5.05;;;;;;;;;;5071335;28;20488;-74
2021/09/02 13:40:33;;;;;;;7.78;5.40;;;;;;;;;;5070696;28;20029;-74
2021/09/02 13:42:59;;;;;;;10.30;4.88;;;;;;;;;;5076584;28;20024;-74
2021/09/02 13:45:25;;;;;;;7.57;4.43;;;;;;;;;;5076469;28;20035;-73
2021/09/02 13:47:51;;;;;;;7.07;5.03;;;;;;;;;;5076208;28;20036;-73
2021/09/02 13:50:17;;;;;;;8.15;4.70;;;;;;;;;;5080183;28;20618;-72
2021/09/02 13:52:43;;;;;;;8.82;4.93;;;;;;;;;;5080743;28;20119;-70
2021/09/02 13:55:16;;;;;;;7.15;4.55;;;;;;;;;;5076938;28;20467;-69
2021/09/02 13:57:43;;;;;;;6.30;4.10;;;;;;;;;;5080497;28;20051;-70
2021/09/02 14:00:10;;;;;;;7.72;4.22;;;;;;;;;;5070670;28;20039;-74
2021/09/02 14:02:36;;;;;;;6.68;4.05;;;;;;;;;;5068438;28;20038;-72
2021/09/02 14:05:03;;;;;;;8.23;3.92;;;;;;;;;;5073310;28;20063;-74
2021/09/02 14:07:29;;;;;;;7.85;3.97;;;;;;;;;;5069542;28;20035;-71
2021/09/02 14:09:55;;;;;;;7.13;4.05;;;;;;;;;;5071981;28;20020;-73
2021/09/02 14:12:24;;;;;;;5.68;3.72;;;;;;;;;;5070361;28;20043;-72
2021/09/02 14:14:50;;;;;;;6.18;4.20;;;;;;;;;;5072118;28;20118;-73
2021/09/02 14:17:17;;;;;;;6.95;4.10;;;;;;;;;;5071219;28;20084;-73
2021/09/02 14:19:43;;;;;;;7.28;3.35;;;;;;;;;;5069535;28;20021;-74
2021/09/02 14:22:09;;;;;;;4.80;3.42;;;;;;;;;;5070371;28;20036;-73
2021/09/02 14:24:35;;;;;;;5.95;4.18;;;;;;;;;;5073013;28;20032;-74
2021/09/02 14:27:01;;;;;;;6.90;3.40;;;;;;;;;;5077047;28;20028;-76
2021/09/02 14:29:28;;;;;;;5.28;3.10;;;;;;;;;;5073849;28;20105;-74
2021/09/02 14:31:54;;;;;;;5.55;3.33;;;;;;;;;;5071901;28;20402;-72
2021/09/02 14:34:20;;;;;;;5.43;3.22;;;;;;;;;;5073380;28;20399;-74